Time;durP1;ratioP1;P1;durP2;ratioP2;P2;SDS_P1;SDS_P2;PMS_P1;PMS_P2;Temp;Humidity;BMP_temperature;BMP_pressure;BME280_temperature;BME280_humidity;BME280_pressure;Samples;Min_cycle;Max_cycle;Signal;HPM_P1;HPM_P2
2022/01/29 00:00:37;;;;;;;48.40;17.42;;;7.80;99.90;;;;;;5073494;28;20076;-79
2022/01/29 00:03:03;;;;;;;43.40;17.02;;;7.80;99.90;;;;;;5090073;28;20049;-80
2022/01/29 00:05:28;;;;;;;41.75;18.90;;;7.80;99.90;;;;;;5107354;28;20364;-79
2022/01/29 00:07:54;;;;;;;38.97;17.75;;;7.80;99.90;;;;;;5073523;28;20047;-79
2022/01/29 00:10:20;;;;;;;44.33;18.17;;;7.80;99.90;;;;;;5073466;28;20051;-79
2022/01/29 00:12:46;;;;;;;51.03;18.20;;;7.90;99.90;;;;;;5073072;28;20449;-79
2022/01/29 00:15:12;;;;;;;40.08;17.90;;;7.90;99.90;;;;;;5056785;28;20044;-80
2022/01/29 00:17:38;;;;;;;48.90;19.00;;;7.90;99.90;;;;;;5090337;28;20064;-80
2022/01/29 00:20:04;;;;;;;44.53;20.00;;;7.90;99.90;;;;;;5090035;28;20426;-79
2022/01/29 00:22:30;;;;;;;54.35;20.15;;;7.80;99.90;;;;;;5072053;28;20052;-79
2022/01/29 00:24:57;;;;;;;44.58;20.02;;;7.80;99.90;;;;;;5073209;28;20499;-79
2022/01/29 00:27:25;;;;;;;57.55;22.27;;;7.80;99.90;;;;;;5089982;28;20044;-79
2022/01/29 00:29:50;;;;;;;50.45;21.60;;;7.90;99.90;;;;;;5073134;28;20047;-79
2022/01/29 00:32:16;;;;;;;57.65;23.77;;;7.80;99.90;;;;;;5072612;28;20453;-80
2022/01/29 00:34:42;;;;;;;54.47;23.33;;;7.80;99.90;;;;;;5106840;28;20544;-80
2022/01/29 00:37:08;;;;;;;61.85;25.10;;;7.90;99.90;;;;;;5072965;28;20036;-79
2022/01/29 00:39:34;;;;;;;64.38;25.50;;;7.90;99.90;;;;;;5072971;28;20032;-79
2022/01/29 00:41:59;;;;;;;71.88;27.15;;;7.90;99.90;;;;;;5089648;28;20062;-79
2022/01/29 00:44:25;;;;;;;57.13;27.63;;;7.90;99.90;;;;;;5056420;28;20052;-79
2022/01/29 00:46:51;;;;;;;65.50;28.08;;;7.80;99.90;;;;;;5072990;28;20044;-80
2022/01/29 00:49:16;;;;;;;61.15;25.75;;;7.70;99.90;;;;;;5072996;28;20047;-79
2022/01/29 00:51:42;;;;;;;68.38;27.20;;;7.70;99.90;;;;;;5072813;28;20149;-80
2022/01/29 00:54:08;;;;;;;69.72;27.70;;;7.80;99.90;;;;;;5089803;28;20083;-79
2022/01/29 00:56:34;;;;;;;59.38;25.13;;;7.90;99.90;;;;;;5072948;28;20050;-79
2022/01/29 00:58:59;;;;;;;71.88;27.60;;;7.70;99.90;;;;;;5056044;28;20053;-79
2022/01/29 01:01:25;;;;;;;61.08;28.00;;;7.80;99.90;;;;;;5089497;28;20036;-79
2022/01/29 01:03:51;;;;;;;68.57;27.27;;;7.80;99.90;;;;;;5072306;28;20102;-79
2022/01/29 01:06:17;;;;;;;60.58;27.65;;;7.80;99.90;;;;;;5089767;28;20040;-79
2022/01/29 01:08:43;;;;;;;68.53;28.02;;;7.80;99.90;;;;;;5089836;28;20072;-79
2022/01/29 01:11:08;;;;;;;53.60;25.38;;;7.80;99.90;;;;;;5090161;28;20399;-79
2022/01/29 01:13:34;;;;;;;64.15;27.77;;;7.80;99.90;;;;;;5072620;28;20052;-79
2022/01/29 01:16:01;;;;;;;60.58;27.35;;;7.80;99.90;;;;;;5106330;28;20036;-80
2022/01/29 01:18:27;;;;;;;62.72;28.25;;;7.90;99.90;;;;;;5072636;28;20494;-79
2022/01/29 01:20:53;;;;;;;71.07;28.40;;;7.90;99.90;;;;;;5072902;28;20082;-79
2022/01/29 01:23:20;;;;;;;66.57;29.50;;;7.90;99.90;;;;;;5105804;28;20102;-78
2022/01/29 01:25:46;;;;;;;65.53;28.55;;;7.90;99.90;;;;;;5106224;28;20471;-79
2022/01/29 01:28:12;;;;;;;57.63;28.15;;;7.90;99.90;;;;;;5106179;28;20072;-79
2022/01/29 01:30:38;;;;;;;70.90;29.08;;;7.90;99.90;;;;;;5072571;28;20076;-79
2022/01/29 01:33:04;;;;;;;61.00;28.08;;;7.90;99.90;;;;;;5074328;28;20048;-79
2022/01/29 01:35:40;;;;;;;59.03;26.55;;;7.80;99.90;;;;;;5076300;28;20036;-79
2022/01/29 01:38:17;;;;;;;58.88;27.83;;;7.90;99.90;;;;;;5076467;28;20537;-79
2022/01/29 01:40:47;;;;;;;68.00;28.25;;;7.90;99.90;;;;;;5093385;28;20036;-79
2022/01/29 01:43:13;;;;;;;70.97;29.73;;;7.90;99.90;;;;;;5076215;28;20044;-80
2022/01/29 01:45:39;;;;;;;70.45;30.77;;;8.00;99.90;;;;;;5076369;28;20440;-79
2022/01/29 01:48:06;;;;;;;71.63;28.02;;;7.90;99.90;;;;;;5076128;28;20047;-79
2022/01/29 01:50:34;;;;;;;77.20;28.35;;;7.90;99.90;;;;;;5059448;28;20051;-80
2022/01/29 01:53:00;;;;;;;71.43;29.35;;;7.90;99.90;;;;;;5076773;28;20040;-80
2022/01/29 01:55:26;;;;;;;66.90;28.38;;;7.90;99.90;;;;;;5092885;28;20108;-79
2022/01/29 01:57:52;;;;;;;73.25;29.27;;;8.00;99.90;;;;;;5059329;28;20041;-79
2022/01/29 02:00:18;;;;;;;75.93;29.30;;;8.00;99.90;;;;;;5075814;28;20086;-80
2022/01/29 02:02:44;;;;;;;67.55;29.02;;;8.10;99.90;;;;;;5075691;28;20051;-79
2022/01/29 02:05:10;;;;;;;78.07;30.42;;;8.10;99.90;;;;;;5093233;28;20048;-79
2022/01/29 02:07:37;;;;;;;78.78;30.58;;;8.10;99.90;;;;;;5075782;28;20044;-79
2022/01/29 02:10:09;;;;;;;68.97;28.48;;;8.10;99.90;;;;;;5075424;28;20133;-79
2022/01/29 02:12:49;;;;;;;61.83;27.85;;;8.10;99.90;;;;;;5109240;28;20134;-79
2022/01/29 02:15:16;;;;;;;67.97;30.67;;;8.10;99.90;;;;;;5075353;28;20044;-79
2022/01/29 02:17:41;;;;;;;72.55;29.83;;;8.10;99.90;;;;;;5075774;28;20056;-79
2022/01/29 02:20:08;;;;;;;69.20;28.75;;;8.00;99.90;;;;;;5109954;28;20118;-79
2022/01/29 02:22:33;;;;;;;74.80;27.98;;;8.10;99.90;;;;;;5091996;28;20053;-79
2022/01/29 02:24:59;;;;;;;77.45;28.15;;;8.10;99.90;;;;;;5075616;28;20059;-79
2022/01/29 02:27:25;;;;;;;72.10;28.13;;;8.20;99.90;;;;;;5058750;28;20102;-79
2022/01/29 02:29:51;;;;;;;63.20;27.67;;;8.20;99.90;;;;;;5092551;28;20127;-79
2022/01/29 02:32:17;;;;;;;70.28;27.83;;;8.30;99.90;;;;;;5074800;28;20045;-81
2022/01/29 02:34:44;;;;;;;64.15;28.85;;;8.30;99.90;;;;;;5075322;28;20044;-79
2022/01/29 02:37:10;;;;;;;59.75;26.17;;;8.20;99.90;;;;;;5092346;28;20084;-79
2022/01/29 02:39:36;;;;;;;60.45;26.10;;;8.20;99.90;;;;;;5109186;28;20071;-79
2022/01/29 02:42:03;;;;;;;62.58;25.17;;;8.30;99.90;;;;;;5074854;28;20388;-79
2022/01/29 02:44:30;;;;;;;69.25;26.30;;;8.30;99.90;;;;;;5074196;28;20044;-79
2022/01/29 02:47:08;;;;;;;63.75;24.52;;;8.20;99.90;;;;;;5108707;28;20076;-80
2022/01/29 02:49:34;;;;;;;66.70;26.95;;;8.30;99.90;;;;;;5074951;28;20052;-79
2022/01/29 02:52:00;;;;;;;65.45;25.38;;;8.40;99.90;;;;;;5074674;28;20052;-79
2022/01/29 02:54:26;;;;;;;66.47;24.65;;;8.40;99.90;;;;;;5074919;28;20070;-79
2022/01/29 02:56:52;;;;;;;56.75;24.60;;;8.40;99.90;;;;;;5108690;28;20376;-79
2022/01/29 02:59:18;;;;;;;62.05;25.35;;;8.50;99.90;;;;;;5074901;28;20130;-79
2022/01/29 03:01:44;;;;;;;62.90;23.92;;;8.40;99.90;;;;;;5108194;28;20155;-79
2022/01/29 03:04:10;;;;;;;54.17;23.05;;;8.40;99.90;;;;;;5108044;28;20048;-79
2022/01/29 03:06:35;;;;;;;61.17;23.73;;;8.40;99.90;;;;;;5074701;28;20083;-79
2022/01/29 03:09:03;;;;;;;54.05;23.10;;;8.40;99.90;;;;;;5091510;28;20134;-79
2022/01/29 03:11:29;;;;;;;54.38;22.65;;;8.40;99.90;;;;;;5074663;28;20055;-79
2022/01/29 03:13:54;;;;;;;51.13;21.90;;;8.40;99.90;;;;;;5091379;28;20496;-79
2022/01/29 03:16:20;;;;;;;61.38;20.60;;;8.50;99.90;;;;;;5074619;28;20041;-79
2022/01/29 03:18:46;;;;;;;47.88;20.80;;;8.50;99.90;;;;;;5057680;28;20498;-79
2022/01/29 03:21:12;;;;;;;63.50;23.23;;;8.60;99.90;;;;;;5091183;28;20048;-80
2022/01/29 03:23:38;;;;;;;52.10;22.20;;;8.60;99.90;;;;;;5074104;28;20145;-79
2022/01/29 03:26:04;;;;;;;49.83;21.63;;;8.60;99.90;;;;;;5091044;28;20088;-79
2022/01/29 03:28:30;;;;;;;59.15;20.75;;;8.50;99.90;;;;;;5107739;28;20047;-79
2022/01/29 03:30:56;;;;;;;46.28;20.38;;;8.60;99.90;;;;;;5074249;28;20369;-79
2022/01/29 03:33:23;;;;;;;52.20;20.70;;;8.50;99.90;;;;;;5107623;28;20392;-79
2022/01/29 03:35:49;;;;;;;50.47;19.67;;;8.50;99.90;;;;;;5074359;28;20098;-79
2022/01/29 03:38:16;;;;;;;43.65;17.83;;;8.60;99.90;;;;;;5074031;28;20062;-79
2022/01/29 03:40:43;;;;;;;46.03;18.55;;;8.60;99.90;;;;;;5073842;28;20136;-79
2022/01/29 03:43:12;;;;;;;45.05;18.58;;;8.70;99.90;;;;;;5107739;28;20095;-79
2022/01/29 03:45:38;;;;;;;50.33;19.70;;;8.70;99.90;;;;;;5073829;28;20052;-79
2022/01/29 03:48:06;;;;;;;42.83;18.23;;;8.70;99.90;;;;;;5073864;28;20066;-79
2022/01/29 03:50:33;;;;;;;40.10;19.05;;;8.70;99.90;;;;;;5073826;28;20498;-79
2022/01/29 03:52:59;;;;;;;40.60;17.73;;;8.70;99.90;;;;;;5073883;28;20066;-79
2022/01/29 03:55:25;;;;;;;40.83;17.73;;;8.60;99.90;;;;;;5090812;28;20106;-79
2022/01/29 03:57:50;;;;;;;35.97;17.45;;;8.70;99.90;;;;;;5073839;28;20048;-79
2022/01/29 04:00:16;;;;;;;45.05;18.70;;;8.70;99.90;;;;;;5090701;28;20084;-79
2022/01/29 04:02:42;;;;;;;48.00;17.55;;;8.70;99.90;;;;;;5056123;28;20208;-79
2022/01/29 04:05:08;;;;;;;37.05;17.42;;;8.80;99.90;;;;;;5090369;28;20047;-79
2022/01/29 04:07:34;;;;;;;44.00;18.38;;;8.80;99.90;;;;;;5090482;28;20498;-79
2022/01/29 04:10:00;;;;;;;39.33;17.80;;;8.80;99.90;;;;;;5073941;28;20052;-79
2022/01/29 04:12:29;;;;;;;53.13;18.55;;;8.90;99.90;;;;;;5073011;28;20052;-79
2022/01/29 04:14:57;;;;;;;41.40;18.02;;;8.90;99.90;;;;;;5073455;28;20062;-79
2022/01/29 04:17:23;;;;;;;46.10;19.27;;;8.90;99.90;;;;;;5073289;28;20048;-79
2022/01/29 04:19:48;;;;;;;41.97;18.50;;;8.80;99.90;;;;;;5073163;28;20131;-79
2022/01/29 04:22:14;;;;;;;46.75;18.05;;;8.90;99.90;;;;;;5072990;28;20053;-79
2022/01/29 04:24:40;;;;;;;38.60;18.60;;;8.90;99.90;;;;;;5107185;28;20051;-79
2022/01/29 04:27:15;;;;;;;39.92;17.42;;;8.90;99.90;;;;;;5073420;28;20098;-79
2022/01/29 04:29:42;;;;;;;37.28;18.10;;;8.90;99.90;;;;;;5090601;28;20062;-79
2022/01/29 04:32:13;;;;;;;44.13;20.13;;;8.90;99.90;;;;;;5107402;28;20048;-79
2022/01/29 04:34:38;;;;;;;44.05;17.95;;;9.00;99.90;;;;;;5089125;28;20048;-80
2022/01/29 04:37:05;;;;;;;35.45;16.85;;;8.90;99.90;;;;;;5056278;28;20058;-79
2022/01/29 04:39:31;;;;;;;40.33;19.58;;;9.00;99.90;;;;;;5106706;28;20052;-79
2022/01/29 04:41:57;;;;;;;49.42;19.15;;;9.00;99.90;;;;;;5106562;28;20044;-79
2022/01/29 04:44:22;;;;;;;46.05;18.17;;;9.00;99.90;;;;;;5056235;28;20041;-79
2022/01/29 04:46:48;;;;;;;43.88;19.77;;;8.90;99.90;;;;;;5090033;28;20127;-79
2022/01/29 04:49:14;;;;;;;46.50;18.00;;;9.00;99.90;;;;;;5072917;28;20502;-79
2022/01/29 04:51:39;;;;;;;40.15;19.05;;;9.10;99.90;;;;;;5089942;28;20052;-78
2022/01/29 04:54:05;;;;;;;40.75;17.90;;;9.00;99.90;;;;;;5089557;28;20131;-79
2022/01/29 04:56:31;;;;;;;46.63;19.20;;;9.00;99.90;;;;;;5090370;28;20380;-79
2022/01/29 04:58:56;;;;;;;53.00;18.70;;;9.00;99.90;;;;;;5089434;28;20131;-79
2022/01/29 05:01:22;;;;;;;38.30;17.05;;;9.10;99.90;;;;;;5072490;28;20037;-79
2022/01/29 05:03:47;;;;;;;39.78;18.30;;;9.10;99.90;;;;;;5072249;28;20040;-79
2022/01/29 05:06:13;;;;;;;42.97;18.25;;;9.20;99.90;;;;;;5089479;28;20040;-79
2022/01/29 05:08:39;;;;;;;43.60;18.30;;;9.20;99.90;;;;;;5095958;28;20442;-79
2022/01/29 05:11:07;;;;;;;41.65;18.05;;;9.10;99.90;;;;;;5079273;28;20373;-79
2022/01/29 05:13:36;;;;;;;30.55;16.60;;;9.20;99.90;;;;;;5096291;28;20131;-79
2022/01/29 05:29:20;;;;;;;32.00;16.50;;;9.20;99.90;;;;;;5079445;28;20049;-79
2022/01/29 05:31:50;;;;;;;33.25;16.38;;;9.30;99.90;;;;;;5079151;28;20067;-79
2022/01/29 05:34:16;;;;;;;36.03;17.17;;;9.30;99.90;;;;;;5078718;28;20396;-79
2022/01/29 05:36:42;;;;;;;35.55;16.80;;;9.40;99.90;;;;;;5079105;28;20149;-79
2022/01/29 05:39:08;;;;;;;39.30;16.10;;;9.40;99.90;;;;;;5079075;28;20510;-79
2022/01/29 05:41:33;;;;;;;32.92;16.33;;;9.40;99.90;;;;;;5079088;28;20067;-79
2022/01/29 05:43:59;;;;;;;34.20;17.55;;;9.40;99.90;;;;;;5112964;28;20135;-78
2022/01/29 05:46:25;;;;;;;33.45;16.15;;;9.40;99.90;;;;;;5078771;28;20094;-79
2022/01/29 05:48:50;;;;;;;39.17;18.17;;;9.40;99.90;;;;;;5079033;28;20045;-78
2022/01/29 05:51:16;;;;;;;38.60;17.33;;;9.40;99.90;;;;;;5096275;28;20050;-79
2022/01/29 05:53:42;;;;;;;36.50;17.83;;;9.30;99.90;;;;;;5078890;28;20475;-78
2022/01/29 05:56:07;;;;;;;37.53;18.77;;;9.40;99.90;;;;;;5112714;28;20109;-79
2022/01/29 05:58:34;;;;;;;38.60;18.20;;;9.30;99.90;;;;;;5079203;28;20045;-79
2022/01/29 06:00:59;;;;;;;35.95;17.70;;;9.30;99.90;;;;;;5095373;28;20055;-79
2022/01/29 06:03:25;;;;;;;34.45;17.08;;;9.30;99.90;;;;;;5111996;28;20052;-78
2022/01/29 06:05:51;;;;;;;41.10;18.00;;;9.30;99.90;;;;;;5062713;28;20044;-79
2022/01/29 06:08:17;;;;;;;34.63;18.08;;;9.30;99.90;;;;;;5078780;28;20048;-79
2022/01/29 06:10:45;;;;;;;45.58;17.77;;;9.30;99.90;;;;;;5112837;28;20495;-79
2022/01/29 06:13:13;;;;;;;39.50;17.25;;;9.40;99.90;;;;;;5062242;28;20058;-79
2022/01/29 06:15:42;;;;;;;33.90;16.13;;;9.40;99.90;;;;;;5078769;28;20041;-79
2022/01/29 06:18:15;;;;;;;38.53;16.40;;;9.30;99.90;;;;;;5111928;28;20476;-79
2022/01/29 06:20:43;;;;;;;36.20;17.17;;;9.40;99.90;;;;;;5109566;28;20097;-78
2022/01/29 06:23:10;;;;;;;37.67;17.85;;;9.40;99.90;;;;;;5109299;28;20091;-78
2022/01/29 06:25:36;;;;;;;32.25;16.13;;;9.40;99.90;;;;;;5075432;28;20048;-78
2022/01/29 06:28:02;;;;;;;38.85;15.75;;;9.40;99.90;;;;;;5058618;28;20135;-78
2022/01/29 06:30:28;;;;;;;35.72;16.20;;;9.30;99.90;;;;;;5075495;28;20051;-78
2022/01/29 06:32:53;;;;;;;34.33;16.83;;;9.40;99.90;;;;;;5075049;28;20036;-79
2022/01/29 06:35:19;;;;;;;29.75;15.77;;;9.40;99.90;;;;;;5109369;28;20044;-79
2022/01/29 06:37:45;;;;;;;36.38;17.08;;;9.40;99.90;;;;;;5058618;28;20048;-79
2022/01/29 06:40:11;;;;;;;29.00;15.23;;;9.50;99.90;;;;;;5058884;28;20048;-79
2022/01/29 06:42:37;;;;;;;33.97;15.75;;;9.40;99.90;;;;;;5074963;28;20491;-78
2022/01/29 06:45:04;;;;;;;36.67;16.52;;;9.40;99.90;;;;;;5075414;28;20044;-78
2022/01/29 06:47:30;;;;;;;29.80;15.63;;;9.40;99.90;;;;;;5075149;28;20452;-79
2022/01/29 06:49:56;;;;;;;27.98;15.55;;;9.40;99.90;;;;;;5108834;28;20090;-78
2022/01/29 06:52:22;;;;;;;32.65;16.10;;;9.40;99.90;;;;;;5109010;28;20060;-78
2022/01/29 06:54:47;;;;;;;33.60;15.55;;;9.40;99.90;;;;;;5109083;28;20488;-79
2022/01/29 06:57:13;;;;;;;32.72;16.08;;;9.40;99.90;;;;;;5075004;28;20055;-78
2022/01/29 06:59:39;;;;;;;29.10;15.77;;;9.40;99.90;;;;;;5108693;28;20041;-77
2022/01/29 07:02:04;;;;;;;33.30;16.23;;;9.40;99.90;;;;;;5091506;28;20507;-78
2022/01/29 07:04:30;;;;;;;31.42;15.88;;;9.30;99.90;;;;;;5074275;28;20071;-78
2022/01/29 07:06:56;;;;;;;31.98;15.90;;;9.40;99.90;;;;;;5091528;28;20048;-79
2022/01/29 07:09:22;;;;;;;34.45;15.70;;;9.30;99.90;;;;;;5091565;28;20062;-78
2022/01/29 07:11:54;;;;;;;29.88;15.00;;;9.40;99.90;;;;;;5075105;28;20053;-78
2022/01/29 07:14:20;;;;;;;31.50;16.02;;;9.40;99.90;;;;;;5074616;28;20122;-78
2022/01/29 07:16:46;;;;;;;32.75;15.85;;;9.30;99.90;;;;;;5108323;28;20052;-79
2022/01/29 07:19:11;;;;;;;33.28;15.25;;;9.40;99.90;;;;;;5074544;28;20051;-79
2022/01/29 07:21:38;;;;;;;35.75;15.80;;;9.30;99.90;;;;;;5057575;28;20036;-78
2022/01/29 07:24:04;;;;;;;31.90;16.75;;;9.40;99.90;;;;;;5074212;28;20059;-78
2022/01/29 07:26:31;;;;;;;33.17;15.02;;;9.30;99.90;;;;;;5074561;28;20152;-78
2022/01/29 07:28:56;;;;;;;33.60;16.35;;;9.40;99.90;;;;;;5074217;28;20048;-78
2022/01/29 07:31:22;;;;;;;27.70;13.95;;;9.30;99.90;;;;;;5108122;28;20082;-78
2022/01/29 07:33:48;;;;;;;30.92;14.32;;;9.40;99.90;;;;;;5090713;28;20090;-79
2022/01/29 07:36:14;;;;;;;37.75;14.82;;;9.40;99.90;;;;;;5108131;28;20040;-79
2022/01/29 07:38:39;;;;;;;37.67;14.10;;;9.40;99.90;;;;;;5057368;28;20135;-79
2022/01/29 07:41:05;;;;;;;31.00;13.73;;;9.40;99.90;;;;;;5074044;28;20388;-79
2022/01/29 07:43:31;;;;;;;30.20;14.85;;;9.50;99.90;;;;;;5108519;28;20055;-79
2022/01/29 07:45:57;;;;;;;30.23;14.02;;;9.50;99.90;;;;;;5073913;28;20105;-79
2022/01/29 07:48:23;;;;;;;32.05;14.85;;;9.50;99.90;;;;;;5107902;28;20510;-79
2022/01/29 07:50:50;;;;;;;31.45;14.75;;;9.50;99.90;;;;;;5073714;28;20040;-78
2022/01/29 07:53:16;;;;;;;33.22;14.23;;;9.40;99.90;;;;;;5090664;28;20044;-78
2022/01/29 07:55:42;;;;;;;25.98;13.68;;;9.50;99.90;;;;;;5090652;28;20117;-79
2022/01/29 07:58:08;;;;;;;25.75;12.98;;;9.50;99.90;;;;;;5056944;28;20051;-78
2022/01/29 08:00:34;;;;;;;30.15;14.63;;;9.40;99.90;;;;;;5107471;28;20127;-79
2022/01/29 08:03:00;;;;;;;31.85;14.20;;;9.40;99.90;;;;;;5073130;28;20136;-79
2022/01/29 08:05:26;;;;;;;28.42;12.95;;;9.40;99.90;;;;;;5073509;28;20135;-79
2022/01/29 08:07:51;;;;;;;29.83;15.13;;;9.40;99.90;;;;;;5107433;28;20055;-79
2022/01/29 08:10:17;;;;;;;33.88;14.35;;;9.40;99.90;;;;;;5090415;28;20040;-79
2022/01/29 08:12:43;;;;;;;33.70;14.23;;;9.50;99.90;;;;;;5073267;28;20105;-79
2022/01/29 08:15:09;;;;;;;31.38;14.45;;;9.50;99.90;;;;;;5056650;28;20059;-79
2022/01/29 08:17:34;;;;;;;28.88;15.10;;;9.60;99.90;;;;;;5090330;28;20044;-79
2022/01/29 08:20:01;;;;;;;31.23;14.40;;;9.60;99.90;;;;;;5073060;28;20049;-79
2022/01/29 08:22:26;;;;;;;32.70;13.95;;;9.50;99.90;;;;;;5072789;28;20447;-78
2022/01/29 08:24:52;;;;;;;30.67;13.00;;;9.50;99.90;;;;;;5107110;28;20048;-79
2022/01/29 08:27:21;;;;;;;26.65;11.93;;;9.40;99.90;;;;;;5089968;28;20083;-78
2022/01/29 08:29:47;;;;;;;29.48;12.02;;;9.40;99.90;;;;;;5089774;28;20052;-79
2022/01/29 08:32:13;;;;;;;31.08;12.43;;;9.50;99.90;;;;;;5090045;28;20094;-79
2022/01/29 08:34:40;;;;;;;26.42;11.77;;;9.50;99.90;;;;;;5072566;28;20052;-79
2022/01/29 08:37:06;;;;;;;23.60;10.77;;;9.50;99.90;;;;;;5072945;28;20080;-78
2022/01/29 08:39:33;;;;;;;30.77;11.88;;;9.40;99.90;;;;;;5055923;28;20470;-77
2022/01/29 08:41:59;;;;;;;20.42;10.80;;;9.40;99.90;;;;;;5071953;28;20082;-71
2022/01/29 08:44:25;;;;;;;26.15;10.68;;;9.50;99.90;;;;;;5072723;28;20049;-72
2022/01/29 08:46:51;;;;;;;21.70;9.20;;;9.50;99.90;;;;;;5072867;28;20049;-74
2022/01/29 08:49:18;;;;;;;23.00;10.13;;;9.60;99.90;;;;;;5073643;28;20346;-73
2022/01/29 08:51:43;;;;;;;21.77;9.98;;;9.60;99.90;;;;;;5106602;28;20483;-72
2022/01/29 08:54:09;;;;;;;26.90;9.38;;;9.70;99.90;;;;;;5072571;28;20049;-72
2022/01/29 08:56:35;;;;;;;20.77;8.95;;;9.70;99.90;;;;;;5072516;28;20056;-73
2022/01/29 08:59:01;;;;;;;17.60;8.52;;;9.60;99.90;;;;;;5075183;28;20055;-73
2022/01/29 09:01:27;;;;;;;22.10;8.40;;;9.60;99.90;;;;;;5079428;28;20044;-71
2022/01/29 09:03:53;;;;;;;24.67;9.23;;;9.70;99.90;;;;;;5073129;28;20132;-71
2022/01/29 09:06:19;;;;;;;15.88;7.55;;;9.80;99.90;;;;;;5072863;28;20080;-73
2022/01/29 09:08:48;;;;;;;16.67;6.93;;;9.80;99.90;;;;;;5072650;28;20113;-73
2022/01/29 09:11:18;;;;;;;20.30;7.53;;;9.80;99.90;;;;;;5072530;28;20484;-73
2022/01/29 09:13:44;;;;;;;16.02;6.93;;;9.90;99.90;;;;;;5073559;28;20048;-73
2022/01/29 09:16:10;;;;;;;15.27;7.35;;;10.00;99.90;;;;;;5072724;28;20055;-73
2022/01/29 09:18:35;;;;;;;14.13;6.38;;;10.00;99.90;;;;;;5073434;28;20094;-72
2022/01/29 09:21:02;;;;;;;21.17;7.53;;;10.00;99.90;;;;;;5072230;28;20080;-72
2022/01/29 09:23:27;;;;;;;13.77;6.25;;;10.00;99.90;;;;;;5072082;28;20110;-72
2022/01/29 09:25:53;;;;;;;16.10;6.00;;;10.00;99.90;;;;;;5072341;28;20431;-73
2022/01/29 09:28:20;;;;;;;14.27;5.88;;;10.00;99.90;;;;;;5072674;28;20106;-72
2022/01/29 09:30:48;;;;;;;17.48;5.75;;;10.00;99.90;;;;;;5072331;28;20377;-73
2022/01/29 09:33:15;;;;;;;14.40;6.60;;;10.00;99.90;;;;;;5107585;28;20460;-72
2022/01/29 09:35:42;;;;;;;17.35;6.03;;;10.00;99.90;;;;;;5072237;28;20080;-73
2022/01/29 09:38:09;;;;;;;15.70;6.45;;;10.00;99.90;;;;;;5073361;28;20114;-72
2022/01/29 09:40:35;;;;;;;16.30;5.65;;;10.10;99.90;;;;;;5073357;28;20071;-72
2022/01/29 09:43:03;;;;;;;15.70;5.65;;;10.10;99.90;;;;;;5072379;28;20044;-72
2022/01/29 09:45:29;;;;;;;13.98;5.38;;;10.00;99.90;;;;;;5071950;28;20471;-72
2022/01/29 09:48:01;;;;;;;15.38;5.65;;;10.10;99.90;;;;;;5071903;28;20060;-72
2022/01/29 09:50:31;;;;;;;15.15;5.57;;;10.10;99.90;;;;;;5072948;28;20472;-72
2022/01/29 09:52:59;;;;;;;14.38;5.28;;;10.10;99.90;;;;;;5072834;28;20125;-72
2022/01/29 09:55:26;;;;;;;14.23;5.45;;;10.20;99.90;;;;;;5075834;28;20079;-73
2022/01/29 09:57:53;;;;;;;17.95;5.95;;;10.20;99.90;;;;;;5110089;28;20084;-72
2022/01/29 10:00:19;;;;;;;15.73;5.03;;;10.20;99.90;;;;;;5077250;28;20146;-73
2022/01/29 10:02:59;;;;;;;16.10;5.20;;;10.20;99.90;;;;;;5075493;28;20109;-72
2022/01/29 10:05:40;;;;;;;18.98;5.05;;;10.20;99.90;;;;;;5075378;28;20515;-73
2022/01/29 10:08:07;;;;;;;18.50;5.90;;;10.30;99.90;;;;;;5075657;28;20057;-73
2022/01/29 10:10:47;;;;;;;23.98;6.90;;;10.20;99.90;;;;;;5076670;28;20563;-73
2022/01/29 10:13:35;;;;;;;18.48;5.28;;;10.10;99.90;;;;;;5075370;28;20049;-72
2022/01/29 10:16:05;;;;;;;17.25;5.25;;;10.20;99.90;;;;;;5077195;28;20086;-76
2022/01/29 10:18:31;;;;;;;17.13;4.43;;;10.20;99.90;;;;;;5110459;28;20105;-75
2022/01/29 10:21:22;;;;;;;15.85;4.10;;;10.10;99.90;;;;;;5075610;28;20131;-75
2022/01/29 10:23:48;;;;;;;13.98;4.40;;;10.20;99.90;;;;;;5075491;28;20053;-76
2022/01/29 10:26:38;;;;;;;10.88;3.80;;;10.20;99.90;;;;;;5075435;28;20071;-76
2022/01/29 10:29:07;;;;;;;15.07;3.67;;;10.20;99.90;;;;;;5076146;28;20549;-76
2022/01/29 10:31:48;;;;;;;13.27;3.47;;;10.30;99.90;;;;;;5075397;28;20139;-76
2022/01/29 10:34:34;;;;;;;11.60;3.22;;;10.20;99.90;;;;;;5108731;28;20075;-75
2022/01/29 10:37:23;;;;;;;10.43;3.25;;;10.20;99.90;;;;;;5075344;28;20064;-76
2022/01/29 10:39:56;;;;;;;10.88;3.47;;;10.20;99.90;;;;;;5075263;28;20052;-76
2022/01/29 10:42:36;;;;;;;13.52;3.30;;;10.30;99.90;;;;;;5076033;28;20050;-76
2022/01/29 10:45:07;;;;;;;9.98;3.15;;;10.30;99.90;;;;;;5109103;28;20049;-76
2022/01/29 10:47:55;;;;;;;9.70;3.28;;;10.30;99.90;;;;;;5076430;28;20422;-73
2022/01/29 10:50:21;;;;;;;7.93;2.85;;;10.30;99.90;;;;;;5075168;28;20052;-74
2022/01/29 10:52:48;;;;;;;10.18;2.55;;;10.30;99.90;;;;;;5075171;28;20053;-74
2022/01/29 10:55:14;;;;;;;11.18;2.53;;;10.30;99.90;;;;;;5075081;28;20048;-73
2022/01/29 10:57:42;;;;;;;15.27;2.47;;;10.40;99.90;;;;;;5074843;28;20067;-73
2022/01/29 11:00:26;;;;;;;10.90;2.17;;;10.40;99.90;;;;;;5108550;28;20052;-74
2022/01/29 11:02:54;;;;;;;14.55;2.50;;;10.40;99.90;;;;;;5074768;28;20045;-74
2022/01/29 11:05:27;;;;;;;17.00;2.70;;;10.40;99.90;;;;;;5073606;28;20114;-74
2022/01/29 11:07:55;;;;;;;10.43;2.28;;;10.50;99.90;;;;;;5062906;28;20163;-75
2022/01/29 11:10:21;;;;;;;10.82;2.10;;;10.50;99.90;;;;;;5064404;28;20063;-78
2022/01/29 11:12:49;;;;;;;10.82;2.00;;;10.50;99.90;;;;;;5064935;28;20487;-74
2022/01/29 11:15:16;;;;;;;8.73;2.15;;;10.50;99.90;;;;;;5064671;28;20080;-78
2022/01/29 11:17:43;;;;;;;12.98;3.30;;;10.60;99.90;;;;;;5064277;28;20117;-77
2022/01/29 11:20:10;;;;;;;10.70;3.08;;;10.60;99.90;;;;;;5064170;28;20084;-77
2022/01/29 11:22:40;;;;;;;9.98;3.13;;;10.70;99.90;;;;;;5063933;28;20067;-77
2022/01/29 11:25:31;;;;;;;9.20;2.28;;;10.70;99.90;;;;;;5064298;28;20696;-75
2022/01/29 11:28:17;;;;;;;6.57;1.77;;;10.70;99.90;;;;;;5064205;28;20585;-75
2022/01/29 11:31:07;;;;;;;8.63;1.88;;;10.70;99.90;;;;;;5064740;28;20048;-75
2022/01/29 11:33:33;;;;;;;11.75;2.33;;;10.70;99.90;;;;;;5087019;27;20052;-75
2022/01/29 11:35:59;;;;;;;15.00;2.35;;;10.70;99.90;;;;;;5075374;28;20484;-73
2022/01/29 11:38:33;;;;;;;10.25;2.10;;;10.70;99.90;;;;;;5090471;28;20525;-72
2022/01/29 11:41:02;;;;;;;7.43;1.88;;;10.70;99.90;;;;;;5077090;28;20047;-74
2022/01/29 11:43:30;;;;;;;7.90;2.00;;;10.70;99.90;;;;;;5062684;28;20117;-74
2022/01/29 11:46:31;;;;;;;7.97;2.17;;;10.70;99.90;;;;;;5083159;28;20032;-74
2022/01/29 11:48:59;;;;;;;12.80;2.00;;;10.80;99.90;;;;;;5091410;28;20654;-77
2022/01/29 11:51:50;;;;;;;10.45;2.00;;;10.80;99.90;;;;;;5077575;28;20048;-71
2022/01/29 11:54:26;;;;;;;9.52;2.00;;;10.80;99.90;;;;;;5076999;28;20044;-72
2022/01/29 11:57:11;;;;;;;12.48;2.15;;;10.80;99.90;;;;;;5093952;28;20052;-71
2022/01/29 11:59:38;;;;;;;8.95;1.60;;;10.80;99.90;;;;;;5093696;28;20517;-71
2022/01/29 12:02:15;;;;;;;11.50;1.95;;;10.80;99.90;;;;;;5094738;28;20475;-71
2022/01/29 12:04:51;;;;;;;8.15;1.80;;;10.90;99.90;;;;;;5094304;28;20044;-71
2022/01/29 12:07:25;;;;;;;11.18;1.92;;;11.00;99.90;;;;;;5094749;28;20063;-71
2022/01/29 12:09:59;;;;;;;9.82;1.88;;;11.00;99.90;;;;;;5094178;28;20505;-71
2022/01/29 12:12:28;;;;;;;8.20;1.73;;;11.00;99.90;;;;;;5093588;28;20048;-71
2022/01/29 12:15:18;;;;;;;12.75;1.70;;;11.00;99.90;;;;;;5093773;28;20088;-69
2022/01/29 12:17:50;;;;;;;8.18;1.65;;;11.00;99.90;;;;;;5093284;28;20514;-73
2022/01/29 12:20:18;;;;;;;11.38;1.75;;;11.00;99.90;;;;;;5094695;28;20055;-80
2022/01/29 12:22:45;;;;;;;7.57;1.48;;;11.10;99.90;;;;;;5093551;28;20495;-75
2022/01/29 12:25:20;;;;;;;8.00;1.92;;;11.10;99.90;;;;;;5076661;28;20102;-73
2022/01/29 12:27:55;;;;;;;7.55;1.50;;;11.20;99.90;;;;;;5093452;28;20161;-73
2022/01/29 12:30:22;;;;;;;9.15;1.50;;;11.20;99.90;;;;;;5093475;28;20116;-74
2022/01/29 12:33:06;;;;;;;7.80;1.55;;;11.20;99.90;;;;;;5093509;28;20069;-74
2022/01/29 12:35:39;;;;;;;9.35;1.33;;;11.20;99.90;;;;;;5092709;28;20498;-73
2022/01/29 12:38:07;;;;;;;13.95;1.90;;;11.20;99.90;;;;;;5092814;28;20044;-72
2022/01/29 12:40:38;;;;;;;10.95;2.20;;;11.20;99.90;;;;;;5093150;28;20075;-72
2022/01/29 12:43:20;;;;;;;10.15;1.90;;;11.20;99.90;;;;;;5097205;28;20119;-72
2022/01/29 12:45:47;;;;;;;11.05;1.92;;;11.10;99.90;;;;;;5094114;28;20044;-75
2022/01/29 12:48:13;;;;;;;10.05;2.40;;;11.10;99.90;;;;;;5036591;28;20082;-74
2022/01/29 12:50:41;;;;;;;12.07;2.83;;;11.10;99.90;;;;;;5098536;27;20048;-72
2022/01/29 12:53:15;;;;;;;12.63;3.47;;;11.10;99.90;;;;;;5087761;28;20055;-72
2022/01/29 12:55:41;;;;;;;12.30;2.40;;;11.10;99.90;;;;;;5088572;28;20094;-73